Time;durP1;ratioP1;P1;durP2;ratioP2;P2;SDS_P1;SDS_P2;PMS_P1;PMS_P2;Temp;Humidity;BMP_temperature;BMP_pressure;BME280_temperature;BME280_humidity;BME280_pressure;Samples;Min_cycle;Max_cycle;Signal;HPM_P1;HPM_P2
2021/04/17 00:01:00;;;;;;;3.22;0.80;;;;;;;7.11;54.22;102793.75;5038319;28;20035;-76
2021/04/17 00:03:26;;;;;;;3.05;1.00;;;;;;;7.03;54.16;102778.31;5052643;28;20033;-76
2021/04/17 00:05:51;;;;;;;2.50;1.13;;;;;;;7.11;54.24;102796.41;5038766;28;20124;-77
2021/04/17 00:08:17;;;;;;;2.30;0.98;;;;;;;7.11;54.15;102785.72;5037051;28;20463;-76
2021/04/17 00:10:42;;;;;;;4.20;1.17;;;;;;;7.04;54.13;102769.31;5054525;28;20053;-76
2021/04/17 00:13:09;;;;;;;1.58;0.90;;;;;;;7.07;54.61;102785.97;5055168;28;20450;-76
2021/04/17 00:15:35;;;;;;;5.43;1.27;;;;;;;7.12;54.89;102784.72;5054254;28;20020;-76
2021/04/17 00:18:00;;;;;;;4.30;1.00;;;;;;;7.10;55.32;102784.88;5055568;28;20044;-76
2021/04/17 00:20:26;;;;;;;3.30;1.00;;;;;;;6.64;54.97;102713.75;5053892;28;20049;-77
2021/04/17 00:22:51;;;;;;;3.45;1.00;;;;;;;6.92;55.04;102763.16;5033557;28;20030;-78
2021/04/17 00:25:18;;;;;;;2.55;0.90;;;;;;;7.01;55.09;102769.56;5034526;28;20032;-77
2021/04/17 00:27:44;;;;;;;5.18;1.20;;;;;;;6.98;55.34;102759.09;5055108;28;20435;-77
2021/04/17 00:30:10;;;;;;;3.50;1.20;;;;;;;7.01;55.70;102767.72;5036965;28;20029;-76
2021/04/17 00:32:35;;;;;;;3.05;1.10;;;;;;;7.05;55.40;102779.03;5055332;28;20036;-77
2021/04/17 00:35:03;;;;;;;4.45;1.00;;;;;;;7.04;55.87;102772.84;5053373;28;20397;-76
2021/04/17 00:37:28;;;;;;;2.95;1.08;;;;;;;7.09;55.85;102768.94;5038925;28;20037;-76
2021/04/17 00:39:54;;;;;;;3.35;1.00;;;;;;;6.98;55.81;102759.94;5052923;28;20109;-76
2021/04/17 00:42:19;;;;;;;2.35;1.05;;;;;;;7.01;56.06;102772.25;5054988;28;20024;-76
2021/04/17 00:44:47;;;;;;;2.55;0.82;;;;;;;6.96;56.32;102771.78;5054296;28;20470;-76
2021/04/17 00:47:14;;;;;;;2.95;1.10;;;;;;;6.14;56.36;102635.00;5055084;28;20029;-77
2021/04/17 00:49:40;;;;;;;3.03;1.40;;;;;;;6.88;56.69;102753.66;5053056;28;20029;-76
2021/04/17 00:52:06;;;;;;;4.18;1.10;;;;;;;6.92;56.42;102771.19;5070646;28;20044;-76
2021/04/17 00:54:32;;;;;;;5.68;1.20;;;;;;;6.89;56.69;102766.09;5068564;28;20116;-76
2021/04/17 00:56:57;;;;;;;3.15;0.95;;;;;;;6.67;56.57;102739.41;5021356;28;20432;-76
2021/04/17 00:59:22;;;;;;;4.28;1.00;;;;;;;6.87;56.71;102762.69;5035147;28;20184;-76
2021/04/17 01:01:48;;;;;;;3.55;1.20;;;;;;;6.85;56.81;102769.97;5037968;28;20339;-76
2021/04/17 01:04:31;;;;;;;3.45;1.10;;;;;;;6.80;57.30;102764.16;5037114;28;20029;-76
2021/04/17 01:07:11;;;;;;;2.85;0.93;;;;;;;6.70;57.39;102755.19;5054273;28;20029;-76
2021/04/17 01:10:14;;;;;;;3.42;0.98;;;;;;;6.76;57.67;102768.94;5054556;28;20090;-77
2021/04/17 01:12:45;;;;;;;3.30;1.05;;;;;;;6.73;57.42;102761.16;5054222;28;20332;-76
2021/04/17 01:15:14;;;;;;;1.77;0.93;;;;;;;6.76;57.81;102765.41;5053732;28;20021;-76
2021/04/17 01:17:43;;;;;;;4.38;1.20;;;;;;;6.81;57.64;102768.53;5052781;28;20040;-76
2021/04/17 01:20:16;;;;;;;4.50;1.10;;;;;;;6.78;58.40;102768.78;5052290;28;20037;-76
2021/04/17 01:22:47;;;;;;;3.72;1.00;;;;;;;6.33;58.67;102700.22;5070220;28;20025;-77
2021/04/17 01:25:17;;;;;;;2.45;1.00;;;;;;;6.47;59.40;102736.53;5067336;28;20025;-76
2021/04/17 01:27:44;;;;;;;2.03;0.93;;;;;;;6.62;60.10;102761.16;5053244;28;20021;-76
2021/04/17 01:30:19;;;;;;;3.75;0.90;;;;;;;6.65;61.06;102770.75;5036560;28;20032;-77
2021/04/17 01:32:46;;;;;;;4.78;1.40;;;;;;;6.46;61.13;102745.53;5054227;28;20094;-76
2021/04/17 01:35:16;;;;;;;3.03;1.00;;;;;;;6.38;61.53;102747.97;5052646;28;20040;-76
2021/04/17 01:37:47;;;;;;;5.30;1.20;;;;;;;6.55;61.18;102774.19;5052927;28;20025;-76
2021/04/17 01:40:13;;;;;;;2.88;1.00;;;;;;;6.56;60.75;102770.56;5053013;28;20063;-76
2021/04/17 01:42:46;;;;;;;2.95;0.80;;;;;;;6.04;59.33;102683.00;5052473;28;20032;-76
2021/04/17 01:45:17;;;;;;;2.67;0.80;;;;;;;6.54;58.75;102752.91;5052724;28;20459;-76
2021/04/17 01:47:43;;;;;;;2.47;1.00;;;;;;;6.70;58.74;102773.94;5052988;28;20118;-76
2021/04/17 01:50:11;;;;;;;2.08;0.82;;;;;;;6.54;58.66;102751.09;5051546;28;20120;-77
2021/04/17 01:52:39;;;;;;;2.47;0.80;;;;;;;6.71;58.58;102780.97;5052617;28;20052;-76
2021/04/17 01:55:06;;;;;;;3.47;1.00;;;;;;;6.66;57.64;102756.44;5053319;28;20021;-76
2021/04/17 01:57:32;;;;;;;5.28;1.17;;;;;;;6.73;57.73;102760.31;5052706;28;20028;-76
2021/04/17 01:59:58;;;;;;;3.60;1.00;;;;;;;6.78;57.74;102771.47;5052952;28;20406;-76
2021/04/17 02:02:24;;;;;;;3.17;0.88;;;;;;;6.73;57.73;102762.97;5052753;28;20036;-76
2021/04/17 02:04:50;;;;;;;3.28;0.98;;;;;;;6.79;57.72;102765.16;5052509;28;20033;-76
2021/04/17 02:07:18;;;;;;;2.53;0.70;;;;;;;6.73;57.35;102758.47;5053460;28;20040;-76
2021/04/17 02:09:44;;;;;;;2.63;0.90;;;;;;;6.71;56.84;102747.03;5051489;28;20098;-76
2021/04/17 02:12:11;;;;;;;2.97;0.70;;;;;;;6.76;56.50;102752.88;5052815;28;20461;-77
2021/04/17 02:14:38;;;;;;;2.97;0.80;;;;;;;6.71;56.38;102730.97;5035754;28;20158;-77
2021/04/17 02:17:13;;;;;;;1.58;0.82;;;;;;;6.70;56.04;102739.16;5035879;28;20120;-77
2021/04/17 02:19:53;;;;;;;4.70;0.90;;;;;;;6.93;55.75;102762.19;5052235;28;20336;-77
2021/04/17 02:22:21;;;;;;;1.58;0.80;;;;;;;6.99;55.87;102771.53;5051579;28;20049;-77
2021/04/17 02:24:47;;;;;;;5.22;0.90;;;;;;;7.01;55.66;102766.88;5052240;28;20040;-76
2021/04/17 02:27:14;;;;;;;2.47;1.00;;;;;;;7.02;55.28;102763.25;5053546;28;20041;-77
2021/04/17 02:29:40;;;;;;;2.30;1.00;;;;;;;6.95;55.48;102748.66;5050635;28;20072;-77
2021/04/17 02:32:13;;;;;;;2.80;0.85;;;;;;;7.02;55.05;102765.94;5035201;28;20459;-76
2021/04/17 02:34:38;;;;;;;2.85;1.00;;;;;;;7.02;55.25;102764.09;5037232;28;20033;-77
2021/04/17 02:37:04;;;;;;;3.80;1.10;;;;;;;7.02;55.10;102760.56;5055416;28;20033;-77
2021/04/17 02:39:29;;;;;;;4.75;0.98;;;;;;;7.03;55.46;102754.25;5056895;28;20025;-77
2021/04/17 02:41:55;;;;;;;2.15;0.80;;;;;;;7.02;55.59;102761.41;5038932;28;20021;-76
2021/04/17 02:44:20;;;;;;;4.05;0.82;;;;;;;7.03;55.13;102754.25;5019523;28;20439;-77
2021/04/17 02:46:46;;;;;;;3.75;0.88;;;;;;;7.03;55.41;102749.72;5053208;28;20451;-77
2021/04/17 02:49:11;;;;;;;2.92;1.10;;;;;;;6.95;55.95;102738.78;5052258;28;20502;-76
2021/04/17 02:51:38;;;;;;;11.32;1.23;;;;;;;6.96;56.15;102748.53;5053728;28;20437;-77
2021/04/17 02:54:05;;;;;;;3.05;1.00;;;;;;;6.96;56.07;102753.06;5055397;28;20025;-77
2021/04/17 02:56:32;;;;;;;3.47;1.10;;;;;;;6.85;56.37;102732.50;5072521;28;20025;-77
2021/04/17 02:58:57;;;;;;;3.83;1.08;;;;;;;6.87;56.31;102746.63;5039038;28;20037;-76
2021/04/17 03:01:23;;;;;;;3.78;1.00;;;;;;;6.71;55.95;102719.44;5052567;28;20367;-77
2021/04/17 03:03:48;;;;;;;2.65;1.00;;;;;;;6.76;56.41;102738.66;5054725;28;20041;-77
2021/04/17 03:06:14;;;;;;;1.95;0.73;;;;;;;6.82;56.76;102754.16;5036443;28;20363;-77
2021/04/17 03:08:39;;;;;;;2.42;0.90;;;;;;;6.82;56.27;102756.84;5055884;28;20025;-77
2021/04/17 03:11:06;;;;;;;3.38;0.90;;;;;;;6.38;56.94;102689.13;5057629;28;20367;-77
2021/04/17 03:13:31;;;;;;;5.55;0.88;;;;;;;6.71;56.87;102744.34;5056389;28;20021;-77
2021/04/17 03:15:57;;;;;;;4.47;0.95;;;;;;;6.46;56.63;102707.25;5054728;28;20024;-77
2021/04/17 03:18:22;;;;;;;3.53;0.90;;;;;;;6.58;56.62;102736.50;5071767;28;20037;-76
2021/04/17 03:20:48;;;;;;;2.78;0.95;;;;;;;6.51;57.00;102737.13;5022597;28;20482;-77
2021/04/17 03:23:14;;;;;;;2.92;0.90;;;;;;;6.44;57.22;102726.06;5054953;28;20029;-77
2021/04/17 03:25:39;;;;;;;3.33;1.00;;;;;;;6.41;57.41;102739.69;5035019;28;20029;-77
2021/04/17 03:28:05;;;;;;;5.45;0.80;;;;;;;6.38;57.32;102741.78;5054139;28;20025;-77
2021/04/17 03:30:31;;;;;;;3.88;1.20;;;;;;;6.14;57.72;102701.84;5053924;28;20474;-77
2021/04/17 03:33:00;;;;;;;2.17;0.93;;;;;;;5.93;57.49;102691.91;5071838;28;20029;-77
2021/04/17 03:35:28;;;;;;;3.28;1.10;;;;;;;6.13;57.39;102724.19;5071091;28;20029;-77
2021/04/17 03:37:54;;;;;;;2.72;0.88;;;;;;;6.21;57.83;102743.13;5056344;28;20094;-77
2021/04/17 03:40:20;;;;;;;3.55;1.20;;;;;;;6.16;57.54;102729.25;5053136;28;20025;-77
2021/04/17 03:42:46;;;;;;;3.38;0.82;;;;;;;6.21;57.37;102754.66;5071689;28;20032;-77
2021/04/17 03:45:12;;;;;;;6.40;0.93;;;;;;;6.17;58.00;102752.38;5054557;28;20040;-77
2021/04/17 03:47:39;;;;;;;4.65;1.00;;;;;;;6.15;58.04;102757.81;5055840;28;20071;-77
2021/04/17 03:50:07;;;;;;;4.75;1.00;;;;;;;6.01;58.10;102747.38;5053419;28;20040;-77
2021/04/17 03:52:33;;;;;;;4.65;1.05;;;;;;;6.06;57.70;102759.44;5055252;28;20062;-77
2021/04/17 03:54:59;;;;;;;3.40;1.10;;;;;;;5.95;58.28;102758.56;5054403;28;20037;-77
2021/04/17 03:57:24;;;;;;;2.33;0.90;;;;;;;5.87;58.40;102745.78;5072516;28;20032;-77
2021/04/17 03:59:49;;;;;;;3.97;1.08;;;;;;;5.86;58.47;102757.41;5037071;28;20028;-76
2021/04/17 04:02:15;;;;;;;4.65;1.10;;;;;;;5.85;58.42;102761.06;5054155;28;20135;-77
2021/04/17 04:04:41;;;;;;;3.72;1.20;;;;;;;5.78;58.27;102754.50;5055226;28;20025;-77
2021/04/17 04:07:08;;;;;;;6.15;1.17;;;;;;;5.52;59.20;102725.31;5054550;28;20033;-77
2021/04/17 04:09:33;;;;;;;5.32;1.08;;;;;;;5.69;59.27;102756.06;5069203;28;20069;-77
2021/04/17 04:11:59;;;;;;;2.60;1.00;;;;;;;5.69;59.04;102752.53;5055912;28;20347;-76
2021/04/17 04:14:32;;;;;;;2.22;0.68;;;;;;;5.47;59.66;102716.84;5069011;28;20040;-78
2021/04/17 04:16:58;;;;;;;4.78;1.30;;;;;;;5.49;60.05;102725.56;5038966;28;20028;-77
2021/04/17 04:19:23;;;;;;;3.97;1.20;;;;;;;5.63;59.85;102751.22;5039176;28;20031;-77
2021/04/17 04:21:49;;;;;;;6.50;1.58;;;;;;;5.42;59.84;102724.34;5039223;28;20358;-77
2021/04/17 04:24:14;;;;;;;4.00;1.17;;;;;;;5.59;59.29;102755.91;5036523;28;20025;-77
2021/04/17 04:26:40;;;;;;;4.88;1.48;;;;;;;5.51;59.84;102758.34;5039271;28;20132;-77
2021/04/17 04:29:06;;;;;;;2.78;1.10;;;;;;;5.44;59.28;102732.25;5059845;28;20090;-77
2021/04/17 04:31:32;;;;;;;3.63;1.13;;;;;;;5.54;59.79;102762.59;5044831;28;20032;-78
2021/04/17 04:33:58;;;;;;;2.92;1.02;;;;;;;5.52;59.87;102765.38;5042903;28;20029;-77
2021/04/17 04:36:24;;;;;;;3.55;1.27;;;;;;;5.23;59.57;102716.03;5040554;28;20020;-77
2021/04/17 04:38:49;;;;;;;5.20;1.33;;;;;;;5.45;59.83;102758.81;5053435;28;20079;-76
2021/04/17 04:41:15;;;;;;;4.18;1.20;;;;;;;5.51;59.65;102760.19;5038197;28;20371;-76
2021/04/17 04:43:40;;;;;;;4.38;1.15;;;;;;;5.35;58.93;102736.47;5051588;28;20017;-76
2021/04/17 04:46:06;;;;;;;4.10;1.30;;;;;;;5.50;59.03;102763.81;5054967;28;20043;-76
2021/04/17 04:48:32;;;;;;;3.72;1.20;;;;;;;5.54;59.07;102754.59;5053101;28;20142;-76
2021/04/17 04:50:58;;;;;;;7.18;1.50;;;;;;;5.49;58.57;102759.44;5037857;28;20055;-76
2021/04/17 04:53:24;;;;;;;6.30;1.40;;;;;;;5.57;58.57;102770.38;5052995;28;20029;-76
2021/04/17 04:55:49;;;;;;;4.88;1.58;;;;;;;5.51;58.62;102769.03;5037352;28;20049;-76
2021/04/17 04:58:15;;;;;;;4.20;1.20;;;;;;;5.47;58.80;102770.25;5054292;28;20116;-77
2021/04/17 05:00:40;;;;;;;5.03;1.20;;;;;;;5.46;58.21;102768.50;5051704;28;20029;-76
2021/04/17 05:03:06;;;;;;;5.32;1.23;;;;;;;5.38;58.05;102760.25;5037554;28;20044;-76
2021/04/17 05:05:31;;;;;;;4.45;1.52;;;;;;;5.42;57.98;102773.25;5053939;28;20121;-76
2021/04/17 05:07:57;;;;;;;4.25;1.15;;;;;;;5.36;58.37;102770.19;5068344;28;20056;-77
2021/04/17 05:10:22;;;;;;;4.65;1.02;;;;;;;5.22;58.19;102744.56;5020461;28;20052;-76
2021/04/17 05:12:48;;;;;;;4.78;1.25;;;;;;;5.35;57.55;102761.34;5034380;28;20033;-76
2021/04/17 05:15:13;;;;;;;10.55;1.30;;;;;;;5.42;57.56;102759.03;5054934;28;20033;-76
2021/04/17 05:17:40;;;;;;;5.57;1.48;;;;;;;5.41;57.90;102768.03;5039525;28;20029;-76
2021/04/17 05:20:07;;;;;;;4.85;1.30;;;;;;;5.42;57.81;102770.56;5053500;28;20029;-76
2021/04/17 05:22:34;;;;;;;3.58;1.23;;;;;;;5.12;57.37;102715.03;5054715;28;20037;-76
2021/04/17 05:25:00;;;;;;;3.83;1.30;;;;;;;5.19;57.38;102739.44;5054080;28;20625;-76
2021/04/17 05:27:25;;;;;;;4.45;1.25;;;;;;;5.31;57.06;102754.53;5056314;28;20550;-76
2021/04/17 05:29:52;;;;;;;4.25;1.27;;;;;;;5.29;56.99;102752.94;5036646;28;20040;-76
2021/04/17 05:32:17;;;;;;;4.97;1.58;;;;;;;5.37;57.36;102763.91;5051516;28;20437;-76
2021/04/17 05:34:43;;;;;;;3.75;1.10;;;;;;;5.42;57.31;102756.38;5034272;28;20097;-76
2021/04/17 05:37:09;;;;;;;5.70;1.13;;;;;;;5.41;56.17;102762.69;5053125;28;20056;-75
2021/04/17 05:39:35;;;;;;;5.15;1.10;;;;;;;5.49;56.09;102762.94;5034081;28;20056;-75
2021/04/17 05:42:00;;;;;;;2.83;1.10;;;;;;;5.58;56.63;102770.25;5052941;28;20020;-76
2021/04/17 05:44:25;;;;;;;7.68;1.27;;;;;;;5.58;56.71;102770.25;5052323;28;20028;-76
2021/04/17 05:46:51;;;;;;;5.22;1.10;;;;;;;5.60;56.58;102767.47;5049367;28;20044;-76
2021/04/17 05:49:17;;;;;;;3.83;1.10;;;;;;;5.71;56.72;102767.50;5053584;28;20037;-76
2021/04/17 05:51:43;;;;;;;5.85;1.25;;;;;;;5.48;55.89;102731.88;5036179;28;20116;-79
2021/04/17 05:54:10;;;;;;;4.10;1.27;;;;;;;5.67;55.98;102765.19;5051115;28;20049;-76
2021/04/17 05:56:38;;;;;;;3.47;1.13;;;;;;;5.67;56.41;102770.53;5053779;28;20025;-76
2021/04/17 05:59:04;;;;;;;2.95;1.20;;;;;;;5.62;56.21;102744.16;5051283;28;20051;-77
2021/04/17 06:01:30;;;;;;;3.20;1.27;;;;;;;5.69;55.98;102739.19;5052009;28;20060;-76
2021/04/17 06:03:55;;;;;;;2.50;1.02;;;;;;;5.81;56.55;102762.28;5053210;28;20377;-77
2021/04/17 06:06:22;;;;;;;2.65;1.15;;;;;;;5.68;55.70;102751.69;5034672;28;20425;-77
2021/04/17 06:08:48;;;;;;;2.30;0.93;;;;;;;5.60;56.62;102735.44;5052608;28;21077;-77
2021/04/17 06:11:15;;;;;;;4.28;1.40;;;;;;;5.77;56.16;102745.66;5050904;28;20375;-78
2021/04/17 06:13:41;;;;;;;3.45;0.85;;;;;;;5.74;55.96;102748.56;5052200;28;20524;-78
2021/04/17 06:16:07;;;;;;;6.82;1.20;;;;;;;5.75;56.09;102757.41;5053210;28;20037;-77
2021/04/17 06:18:34;;;;;;;3.47;1.10;;;;;;;5.57;56.06;102749.03;5052109;28;20028;-79
2021/04/17 06:20:59;;;;;;;4.32;0.95;;;;;;;5.79;56.19;102764.22;5052777;28;20043;-77
2021/04/17 06:23:25;;;;;;;4.60;1.00;;;;;;;5.63;56.63;102744.06;5052065;28;20020;-77
2021/04/17 06:25:50;;;;;;;2.97;1.10;;;;;;;5.69;56.55;102771.25;5053018;28;20029;-78
2021/04/17 06:28:18;;;;;;;6.03;1.05;;;;;;;5.73;56.20;102748.66;5035004;28;20060;-79
2021/04/17 06:30:46;;;;;;;6.10;1.10;;;;;;;5.77;57.21;102758.16;5069074;28;20087;-78
2021/04/17 06:33:12;;;;;;;4.47;1.38;;;;;;;5.63;57.05;102733.38;5069110;28;20032;-78
2021/04/17 06:35:39;;;;;;;3.97;1.17;;;;;;;5.61;56.67;102729.97;5069325;28;20029;-78
2021/04/17 06:38:08;;;;;;;3.03;0.90;;;;;;;5.69;56.82;102748.06;5052174;28;20021;-78
2021/04/17 06:40:34;;;;;;;10.43;1.30;;;;;;;5.69;56.61;102752.53;5050971;28;20036;-78
2021/04/17 06:43:02;;;;;;;3.47;1.05;;;;;;;5.69;56.58;102744.53;5068962;28;20037;-77
2021/04/17 06:45:30;;;;;;;4.20;1.10;;;;;;;5.35;56.82;102667.06;5051944;28;20028;-79
2021/04/17 06:47:57;;;;;;;2.08;1.05;;;;;;;5.90;56.31;102742.88;5052243;28;20241;-77
2021/04/17 06:50:24;;;;;;;4.18;0.98;;;;;;;5.71;56.74;102713.22;5051554;28;20117;-77
2021/04/17 06:52:51;;;;;;;3.75;1.08;;;;;;;6.03;56.68;102740.13;5053086;28;20078;-77
2021/04/17 06:55:17;;;;;;;2.17;0.90;;;;;;;6.14;56.40;102739.25;5052110;28;20028;-78
2021/04/17 06:57:49;;;;;;;2.83;0.77;;;;;;;6.08;56.15;102729.88;5050733;28;20040;-78
2021/04/17 07:00:18;;;;;;;3.38;1.20;;;;;;;6.17;56.57;102731.00;5082715;28;20021;-76
2021/04/17 07:02:43;;;;;;;2.85;0.90;;;;;;;6.30;55.91;102734.38;5051887;28;20174;-77
2021/04/17 07:05:09;;;;;;;3.70;1.25;;;;;;;6.14;55.90;102701.84;5051996;28;20076;-78
2021/04/17 07:07:34;;;;;;;2.63;0.90;;;;;;;6.41;55.94;102734.34;5051366;28;20118;-76
2021/04/17 07:10:03;;;;;;;4.07;1.10;;;;;;;6.41;55.66;102730.81;5051176;28;20540;-77
2021/04/17 07:12:34;;;;;;;3.78;1.00;;;;;;;6.48;56.08;102726.69;5049665;28;20048;-76
2021/04/17 07:15:04;;;;;;;4.65;1.00;;;;;;;6.41;55.89;102720.97;5045100;28;20029;-76
2021/04/17 07:17:32;;;;;;;2.22;0.90;;;;;;;6.31;56.07;102714.69;5053544;28;20489;-75
2021/04/17 07:20:00;;;;;;;3.15;1.00;;;;;;;6.49;55.44;102726.56;5056336;28;20033;-76
2021/04/17 07:22:43;;;;;;;3.80;0.73;;;;;;;6.54;55.17;102735.03;5055810;28;20036;-76
2021/04/17 07:25:09;;;;;;;4.20;1.13;;;;;;;6.62;55.79;102731.72;5056732;28;20052;-76
2021/04/17 07:27:41;;;;;;;2.72;0.98;;;;;;;6.71;55.16;102732.81;5050668;28;20367;-76
2021/04/17 07:30:27;;;;;;;3.72;1.13;;;;;;;6.89;55.54;102736.66;5055772;28;20048;-76
2021/04/17 07:33:16;;;;;;;5.22;1.40;;;;;;;7.01;55.43;102732.09;5054030;28;20037;-76
2021/04/17 07:35:51;;;;;;;5.63;1.48;;;;;;;7.13;54.43;102762.34;5072319;28;20082;-77
2021/04/17 07:38:22;;;;;;;2.45;0.88;;;;;;;7.23;54.18;102745.38;5056137;28;20025;-76
2021/04/17 07:41:09;;;;;;;4.80;1.17;;;;;;;7.56;53.73;102734.59;5056050;28;20068;-76
2021/04/17 07:43:51;;;;;;;5.03;1.08;;;;;;;7.53;53.63;102746.44;5054247;28;20528;-76
2021/04/17 07:46:21;;;;;;;1.73;0.88;;;;;;;7.64;53.25;102740.97;5055403;28;20024;-76
2021/04/17 07:48:47;;;;;;;2.63;0.82;;;;;;;7.68;52.99;102725.47;5071558;28;20097;-76
2021/04/17 07:51:13;;;;;;;7.22;1.20;;;;;;;7.72;52.74;102737.66;5053277;28;20063;-76
2021/04/17 07:53:40;;;;;;;6.50;1.20;;;;;;;7.75;52.42;102737.41;5055728;28;20067;-76
2021/04/17 07:56:33;;;;;;;4.30;1.20;;;;;;;7.75;52.33;102727.53;5054816;28;20098;-76
2021/04/17 07:59:02;;;;;;;6.30;1.10;;;;;;;7.63;51.77;102690.22;5054715;28;20024;-75
2021/04/17 08:01:30;;;;;;;6.43;1.20;;;;;;;8.21;50.98;102731.53;5048317;28;20033;-77
2021/04/17 08:03:57;;;;;;;3.17;1.10;;;;;;;8.43;50.91;102725.09;5035127;28;20040;-78
2021/04/17 08:06:24;;;;;;;3.17;1.00;;;;;;;8.62;50.05;102748.44;5043181;28;20021;-77
2021/04/17 08:08:51;;;;;;;2.40;1.08;;;;;;;8.47;49.57;102705.06;5054545;28;20078;-76
2021/04/17 08:11:20;;;;;;;3.88;1.10;;;;;;;8.65;49.08;102713.28;5052845;28;20072;-77
2021/04/17 08:13:48;;;;;;;3.15;1.00;;;;;;;9.03;48.33;102729.53;5070785;28;20036;-77
2021/04/17 08:16:15;;;;;;;3.45;1.10;;;;;;;9.02;47.92;102743.97;5052676;28;20037;-77
2021/04/17 08:18:41;;;;;;;2.92;0.80;;;;;;;9.05;48.39;102741.84;5052176;28;20358;-77
2021/04/17 08:21:07;;;;;;;3.17;0.90;;;;;;;9.17;47.79;102737.16;5054480;28;20036;-77
2021/04/17 08:23:36;;;;;;;4.07;1.10;;;;;;;9.28;47.53;102738.88;5053646;28;20442;-77
2021/04/17 08:26:03;;;;;;;2.63;0.90;;;;;;;9.23;48.19;102746.50;5052534;28;20103;-77
2021/04/17 08:28:30;;;;;;;4.35;0.93;;;;;;;8.99;47.93;102739.72;5055487;28;20037;-77
2021/04/17 08:31:33;;;;;;;5.05;1.00;;;;;;;8.84;47.97;102741.13;5052001;28;20100;-77
2021/04/17 08:34:16;;;;;;;3.00;1.05;;;;;;;8.79;48.34;102738.03;5050956;28;20039;-77
2021/04/17 08:36:46;;;;;;;4.68;1.23;;;;;;;8.70;48.43;102734.31;5054748;28;20451;-77
2021/04/17 08:39:34;;;;;;;3.30;0.77;;;;;;;8.75;48.76;102737.44;5068732;28;20332;-76
2021/04/17 08:42:37;;;;;;;3.58;1.10;;;;;;;8.92;48.64;102736.75;5070398;28;20021;-77
2021/04/17 08:45:10;;;;;;;1.75;0.88;;;;;;;9.23;47.54;102741.97;5054445;28;20029;-77
2021/04/17 08:47:55;;;;;;;5.00;0.80;;;;;;;9.40;47.14;102733.19;5054801;28;20443;-76
2021/04/17 08:50:23;;;;;;;4.05;0.80;;;;;;;9.64;47.09;102743.47;5053477;28;20037;-77
2021/04/17 08:52:59;;;;;;;3.45;1.20;;;;;;;9.53;46.04;102692.56;5054789;28;20465;-77
2021/04/17 08:55:43;;;;;;;3.92;0.70;;;;;;;9.81;45.86;102704.22;5052063;28;20025;-77
2021/04/17 08:58:19;;;;;;;2.35;1.05;;;;;;;9.86;44.79;102693.84;5068951;28;20366;-77
2021/04/17 09:00:52;;;;;;;2.60;0.73;;;;;;;10.10;44.18;102731.00;5052287;28;20021;-77
2021/04/17 09:03:47;;;;;;;2.60;0.90;;;;;;;10.27;44.53;102709.69;5052883;28;20017;-76
2021/04/17 09:06:25;;;;;;;1.27;0.70;;;;;;;10.38;43.02;102724.78;5055541;28;20630;-77
2021/04/17 09:09:27;;;;;;;1.75;0.82;;;;;;;10.37;42.58;102682.72;5052483;28;20055;-77
2021/04/17 09:12:14;;;;;;;2.95;1.00;;;;;;;10.78;41.87;102683.97;5015982;28;20465;-77
2021/04/17 09:14:40;;;;;;;2.35;1.10;;;;;;;10.96;41.48;102714.44;5050589;28;20517;-77
2021/04/17 09:17:31;;;;;;;3.17;0.95;;;;;;;11.01;41.93;102695.13;5068763;28;20041;-78
2021/04/17 09:20:01;;;;;;;2.35;1.13;;;;;;;10.94;41.41;102702.13;5068687;28;20067;-77
2021/04/17 09:25:15;;;;;;;4.65;1.08;;;;;;;11.34;40.62;102687.28;5053681;28;20043;-77
2021/04/17 09:27:43;;;;;;;3.83;1.10;;;;;;;11.33;40.20;102696.38;5067686;28;20017;-77
2021/04/17 09:30:15;;;;;;;3.47;0.80;;;;;;;11.37;39.99;102693.19;5054259;28;20028;-78
2021/04/17 09:33:00;;;;;;;3.28;0.80;;;;;;;11.24;40.05;102706.25;5051777;28;20025;-77
2021/04/17 09:35:34;;;;;;;4.18;0.93;;;;;;;11.19;40.02;102689.69;5068333;28;20017;-77
2021/04/17 09:38:38;;;;;;;2.80;1.13;;;;;;;11.02;39.74;102691.41;5052849;28;20037;-77
2021/04/17 09:41:04;;;;;;;2.97;0.70;;;;;;;10.98;39.90;102690.88;5053438;28;20021;-77
2021/04/17 09:43:32;;;;;;;4.15;1.00;;;;;;;11.05;40.06;102686.56;5051098;28;20033;-78
2021/04/17 09:46:05;;;;;;;2.85;0.70;;;;;;;11.17;40.61;102664.75;5053179;28;20067;-77
2021/04/17 09:48:41;;;;;;;3.10;0.80;;;;;;;11.22;41.06;102682.13;5053148;28;20025;-77
2021/04/17 09:51:21;;;;;;;2.45;0.85;;;;;;;11.28;40.51;102672.59;5053723;28;20025;-77
2021/04/17 09:53:51;;;;;;;2.13;0.70;;;;;;;11.27;40.27;102665.50;5052504;28;20040;-78
2021/04/17 09:56:47;;;;;;;2.47;0.80;;;;;;;11.50;40.58;102672.06;5054009;28;20024;-77
2021/04/17 09:59:15;;;;;;;8.05;0.73;;;;;;;11.81;38.88;102668.84;5048253;28;20029;-77
2021/04/17 10:01:52;;;;;;;3.70;0.82;;;;;;;12.10;37.84;102668.47;5052729;28;20064;-77
2021/04/17 10:04:19;;;;;;;2.15;0.75;;;;;;;12.26;36.98;102661.47;5051869;28;20029;-77
2021/04/17 10:07:03;;;;;;;3.05;0.65;;;;;;;12.48;36.23;102650.00;5051522;28;20114;-77
2021/04/17 10:09:31;;;;;;;3.63;0.90;;;;;;;12.61;36.01;102663.03;5052788;28;20362;-77
2021/04/17 10:12:11;;;;;;;3.35;0.82;;;;;;;12.48;34.74;102644.59;5067602;28;20037;-77
2021/04/17 10:14:37;;;;;;;2.50;0.80;;;;;;;12.36;35.46;102662.16;5053612;28;20039;-78
2021/04/17 10:17:03;;;;;;;2.03;0.70;;;;;;;12.23;35.37;102659.94;5051876;28;20033;-77
2021/04/17 10:19:30;;;;;;;1.73;0.55;;;;;;;12.26;35.93;102619.09;5035390;28;20029;-77
2021/04/17 10:21:59;;;;;;;2.05;0.70;;;;;;;12.50;36.34;102649.84;5052214;28;20044;-77
2021/04/17 10:24:44;;;;;;;1.40;0.73;;;;;;;12.37;35.72;102643.06;5052724;28;20091;-77
2021/04/17 10:27:13;;;;;;;2.75;0.70;;;;;;;12.27;36.24;102619.94;5052238;28;20083;-77
2021/04/17 10:29:46;;;;;;;1.92;0.70;;;;;;;12.70;35.53;102632.31;5052683;28;20362;-77
2021/04/17 10:32:17;;;;;;;3.58;0.68;;;;;;;13.04;36.13;102629.41;5052097;28;20029;-77
2021/04/17 10:34:49;;;;;;;1.85;0.93;;;;;;;13.36;34.96;102628.56;5052366;28;20021;-77
2021/04/17 10:37:21;;;;;;;2.38;0.63;;;;;;;13.47;34.95;102627.34;5069341;28;20525;-77
2021/04/17 10:40:05;;;;;;;2.67;0.80;;;;;;;13.44;31.56;102634.94;5053342;28;20078;-77
2021/04/17 10:42:55;;;;;;;1.35;0.68;;;;;;;13.39;31.10;102630.91;5054628;28;20151;-78
2021/04/17 10:45:36;;;;;;;1.88;0.65;;;;;;;13.21;31.46;102624.00;5052147;28;20390;-78
2021/04/17 10:48:05;;;;;;;2.80;0.70;;;;;;;13.05;30.69;102627.59;5053101;28;20406;-78
2021/04/17 10:50:44;;;;;;;2.63;0.73;;;;;;;12.74;31.56;102595.00;5051370;28;20028;-78
2021/04/17 10:53:20;;;;;;;1.45;0.65;;;;;;;12.85;31.42;102608.19;5055306;28;20420;-78
2021/04/17 10:55:51;;;;;;;2.42;0.70;;;;;;;12.66;31.05;102598.56;5055078;28;20040;-79
2021/04/17 10:58:32;;;;;;;1.27;0.70;;;;;;;12.58;31.14;102618.31;5056590;28;20029;-78
2021/04/17 11:01:03;;;;;;;2.05;0.90;;;;;;;12.67;31.64;102616.44;5053574;28;20017;-78
2021/04/17 11:03:39;;;;;;;4.60;0.90;;;;;;;12.63;32.34;102610.53;5049718;28;20087;-78
2021/04/17 11:06:14;;;;;;;1.48;0.60;;;;;;;12.80;32.28;102605.97;5057067;28;20029;-78
2021/04/17 11:08:40;;;;;;;1.33;0.50;;;;;;;12.97;32.35;102624.88;5057105;28;20035;-78
2021/04/17 11:11:11;;;;;;;2.72;0.93;;;;;;;12.56;32.36;102560.91;5057274;28;20057;-78
2021/04/17 11:13:43;;;;;;;2.85;0.73;;;;;;;12.70;32.96;102633.16;5057607;28;20059;-78
2021/04/17 11:16:15;;;;;;;1.55;0.60;;;;;;;12.42;33.09;102619.13;5054561;28;20037;-78
2021/04/17 11:18:42;;;;;;;2.92;0.80;;;;;;;12.54;33.31;102613.41;5059912;28;20032;-77
2021/04/17 11:21:11;;;;;;;2.97;0.82;;;;;;;12.67;33.96;102624.53;5057501;28;20029;-77
2021/04/17 11:23:45;;;;;;;2.22;0.80;;;;;;;12.70;33.13;102616.09;5059361;28;20104;-77
2021/04/17 11:26:21;;;;;;;1.45;0.73;;;;;;;12.65;33.60;102622.03;5075801;28;20043;-79
2021/04/17 11:28:50;;;;;;;2.08;0.80;;;;;;;12.58;33.84;102614.75;5062810;28;20043;-78
2021/04/17 11:31:20;;;;;;;2.60;0.80;;;;;;;12.59;33.90;102625.41;5062780;28;20028;-79
2021/04/17 11:33:46;;;;;;;2.47;0.77;;;;;;;12.50;33.37;102615.59;5062904;28;20048;-78
2021/04/17 11:36:12;;;;;;;1.45;0.80;;;;;;;12.63;33.37;102626.75;5062526;28;20366;-77
2021/04/17 11:38:37;;;;;;;4.43;0.85;;;;;;;12.75;33.47;102621.00;5057503;28;20083;-78
2021/04/17 11:41:03;;;;;;;2.20;0.75;;;;;;;12.79;33.67;102598.91;5039662;28;20033;-78
2021/04/17 11:43:29;;;;;;;1.60;0.65;;;;;;;12.89;34.29;102585.22;5054738;28;20047;-77
2021/04/17 11:45:54;;;;;;;1.75;0.70;;;;;;;13.03;34.16;102638.56;5055746;28;20036;-78